Kezdőlap
METAR-TAF:

METAR-TAF

Repülőterek :

Indianapolis, Indiana, Amerikai Egyesült Államok

földrajzi szélesség: 39-49-30N, földrajzi hosszúság: 086-17-45W, magasság: 250 m

Jelenlegi meteorológiai megfigyelések

A jelentés 1 órával és 14 perccel ezelõtt készült, 09:53 UTC
Szélcsend
Hőmérséklet 19°C
Páratartalom 78%
Légköri nyomás 1019 hPa
Látótávolság: 16.1 km
Derült ég

METAR: KEYE 210953Z AUTO 00000KT 10SM CLR 19/15 A3010 RMK AO2 SLP185 T01890150

Idő: 07:07 (11:07 UTC)


TAF: hiányzik

Meteorológiai megfigyelések és előrejelzések több, mint 4000 repülőtéren (METAR és TAF jelentéseket).

A térképen piros és sárga pontok jelzik az elérhető meteorológiai állomásokat.

Mozgassa az egeret a pont fölött, hogy megjelenjen az állomás neve.

Azután kattintson az időjárási megfigyelések és előrejelzések megtekintéséhez.

A térkép megváltoztatása: kattintson a fekete keresztel jelölt zöld gombra ráközelítéshez, a vonallal jelölt zöld gombra távolításhoz, vagy a zöld nyilakra a szomszédos térképek eléréséhez.


METAR-TAF: